sensor_id;sensor_type;location;lat;lon;timestamp;pressure;altitude;pressure_sealevel;temperature;humidity
10940;BME280;5522;42.696;23.494;2023-01-31T00:00:24;53847.78;;;-139.68;100.00
10940;BME280;5522;42.696;23.494;2023-01-31T00:02:51;53853.81;;;-139.68;100.00
10940;BME280;5522;42.696;23.494;2023-01-31T00:05:18;53863.88;;;-139.68;100.00
10940;BME280;5522;42.696;23.494;2023-01-31T00:07:45;53869.91;;;-139.68;100.00
10940;BME280;5522;42.696;23.494;2023-01-31T00:10:12;53809.59;;;-139.68;100.00
10940;BME280;5522;42.696;23.494;2023-01-31T00:12:41;53883.97;;;-139.68;100.00
10940;BME280;5522;42.696;23.494;2023-01-31T00:15:08;53867.88;;;-139.68;100.00
10940;BME280;5522;42.696;23.494;2023-01-31T00:17:38;53888.00;;;-139.68;100.00
10940;BME280;5522;42.696;23.494;2023-01-31T00:20:06;53867.88;;;-139.68;100.00
10940;BME280;5522;42.696;23.494;2023-01-31T00:22:33;53867.88;;;-139.68;100.00
10940;BME280;5522;42.696;23.494;2023-01-31T00:25:00;53821.66;;;-139.68;100.00
10940;BME280;5522;42.696;23.494;2023-01-31T00:27:26;53851.81;;;-139.68;100.00
10940;BME280;5522;42.696;23.494;2023-01-31T00:29:55;53825.66;;;-139.68;100.00
10940;BME280;5522;42.696;23.494;2023-01-31T00:32:22;53851.81;;;-139.68;100.00
10940;BME280;5522;42.696;23.494;2023-01-31T00:34:51;53851.81;;;-139.68;100.00
10940;BME280;5522;42.696;23.494;2023-01-31T00:37:18;53831.69;;;-139.68;100.00
10940;BME280;5522;42.696;23.494;2023-01-31T00:39:44;53829.69;;;-139.68;100.00
10940;BME280;5522;42.696;23.494;2023-01-31T00:42:11;53825.66;;;-139.68;100.00
10940;BME280;5522;42.696;23.494;2023-01-31T00:44:38;53875.94;;;-139.68;100.00
10940;BME280;5522;42.696;23.494;2023-01-31T00:47:07;53853.81;;;-139.68;100.00
10940;BME280;5522;42.696;23.494;2023-01-31T00:49:33;53859.84;;;-139.68;100.00
10940;BME280;5522;42.696;23.494;2023-01-31T00:52:00;53873.91;;;-139.68;100.00
10940;BME280;5522;42.696;23.494;2023-01-31T00:54:27;53904.06;;;-139.68;100.00
10940;BME280;5522;42.696;23.494;2023-01-31T00:56:54;53839.75;;;-139.68;100.00
10940;BME280;5522;42.696;23.494;2023-01-31T00:59:21;53811.59;;;-139.68;100.00
10940;BME280;5522;42.696;23.494;2023-01-31T01:06:59;53859.84;;;-139.68;100.00
10940;BME280;5522;42.696;23.494;2023-01-31T01:09:26;53841.75;;;-139.68;100.00
10940;BME280;5522;42.696;23.494;2023-01-31T01:11:53;53857.84;;;-139.68;100.00
10940;BME280;5522;42.696;23.494;2023-01-31T01:14:20;53831.69;;;-139.68;100.00
10940;BME280;5522;42.696;23.494;2023-01-31T01:16:47;53841.75;;;-139.68;100.00
10940;BME280;5522;42.696;23.494;2023-01-31T01:19:16;53843.75;;;-139.68;100.00
10940;BME280;5522;42.696;23.494;2023-01-31T01:21:43;53871.91;;;-139.68;100.00
10940;BME280;5522;42.696;23.494;2023-01-31T01:24:14;53833.72;;;-139.68;100.00
10940;BME280;5522;42.696;23.494;2023-01-31T01:26:42;53859.84;;;-139.68;100.00
10940;BME280;5522;42.696;23.494;2023-01-31T01:29:09;53827.69;;;-139.68;100.00
10940;BME280;5522;42.696;23.494;2023-01-31T01:31:37;53871.91;;;-139.68;100.00
10940;BME280;5522;42.696;23.494;2023-01-31T01:34:06;53831.69;;;-139.68;100.00
10940;BME280;5522;42.696;23.494;2023-01-31T01:36:34;53827.69;;;-139.68;100.00
10940;BME280;5522;42.696;23.494;2023-01-31T01:39:01;53843.75;;;-139.68;100.00
10940;BME280;5522;42.696;23.494;2023-01-31T01:41:31;53843.75;;;-139.68;100.00
10940;BME280;5522;42.696;23.494;2023-01-31T01:44:01;53855.81;;;-139.68;100.00
10940;BME280;5522;42.696;23.494;2023-01-31T01:46:30;53859.84;;;-139.68;100.00
10940;BME280;5522;42.696;23.494;2023-01-31T01:49:01;53831.69;;;-139.68;100.00
10940;BME280;5522;42.696;23.494;2023-01-31T01:51:31;53855.81;;;-139.68;100.00
10940;BME280;5522;42.696;23.494;2023-01-31T01:54:04;53839.75;;;-139.68;100.00
10940;BME280;5522;42.696;23.494;2023-01-31T01:56:36;53839.75;;;-139.68;100.00
10940;BME280;5522;42.696;23.494;2023-01-31T01:59:07;53863.88;;;-139.68;100.00
10940;BME280;5522;42.696;23.494;2023-01-31T02:01:36;53843.75;;;-139.68;100.00
10940;BME280;5522;42.696;23.494;2023-01-31T02:04:06;53859.84;;;-139.68;100.00
10940;BME280;5522;42.696;23.494;2023-01-31T02:06:33;53843.75;;;-139.68;100.00
10940;BME280;5522;42.696;23.494;2023-01-31T02:09:00;53867.88;;;-139.68;100.00
10940;BME280;5522;42.696;23.494;2023-01-31T02:11:30;53853.81;;;-139.68;100.00
10940;BME280;5522;42.696;23.494;2023-01-31T02:14:01;53855.81;;;-139.68;100.00
10940;BME280;5522;42.696;23.494;2023-01-31T02:16:35;53827.69;;;-139.68;100.00
10940;BME280;5522;42.696;23.494;2023-01-31T02:19:05;53855.81;;;-139.68;100.00
10940;BME280;5522;42.696;23.494;2023-01-31T02:22:11;53833.72;;;-139.68;100.00
10940;BME280;5522;42.696;23.494;2023-01-31T02:25:17;53827.69;;;-139.68;100.00
10940;BME280;5522;42.696;23.494;2023-01-31T02:28:17;53849.78;;;-139.68;100.00
10940;BME280;5522;42.696;23.494;2023-01-31T02:31:08;53825.66;;;-139.68;100.00
10940;BME280;5522;42.696;23.494;2023-01-31T02:33:48;53843.75;;;-139.68;100.00
10940;BME280;5522;42.696;23.494;2023-01-31T02:36:26;53855.81;;;-139.68;100.00
10940;BME280;5522;42.696;23.494;2023-01-31T02:39:02;53839.75;;;-139.68;100.00
10940;BME280;5522;42.696;23.494;2023-01-31T02:41:38;53851.81;;;-139.68;100.00
10940;BME280;5522;42.696;23.494;2023-01-31T02:44:12;53809.59;;;-139.68;100.00
10940;BME280;5522;42.696;23.494;2023-01-31T02:47:06;53853.81;;;-139.68;100.00
10940;BME280;5522;42.696;23.494;2023-01-31T02:49:41;53867.88;;;-139.68;100.00
10940;BME280;5522;42.696;23.494;2023-01-31T02:52:19;53861.84;;;-139.68;100.00
10940;BME280;5522;42.696;23.494;2023-01-31T02:54:56;53879.94;;;-139.68;100.00
10940;BME280;5522;42.696;23.494;2023-01-31T02:57:43;53843.75;;;-139.68;100.00
10940;BME280;5522;42.696;23.494;2023-01-31T03:00:12;53847.78;;;-139.68;100.00
10940;BME280;5522;42.696;23.494;2023-01-31T03:02:39;53873.91;;;-139.68;100.00
10940;BME280;5522;42.696;23.494;2023-01-31T03:05:13;53867.88;;;-139.68;100.00
10940;BME280;5522;42.696;23.494;2023-01-31T03:07:41;53843.75;;;-139.68;100.00
10940;BME280;5522;42.696;23.494;2023-01-31T03:10:19;53841.75;;;-139.68;100.00
10940;BME280;5522;42.696;23.494;2023-01-31T03:13:01;53859.84;;;-139.68;100.00
10940;BME280;5522;42.696;23.494;2023-01-31T03:15:44;53835.72;;;-139.68;100.00
10940;BME280;5522;42.696;23.494;2023-01-31T03:18:35;53823.66;;;-139.68;100.00
10940;BME280;5522;42.696;23.494;2023-01-31T03:21:08;53867.88;;;-139.68;100.00
10940;BME280;5522;42.696;23.494;2023-01-31T03:23:41;53835.72;;;-139.68;100.00
10940;BME280;5522;42.696;23.494;2023-01-31T03:26:09;53883.97;;;-139.68;100.00
10940;BME280;5522;42.696;23.494;2023-01-31T03:28:39;53821.66;;;-139.68;100.00
10940;BME280;5522;42.696;23.494;2023-01-31T03:31:10;53843.75;;;-139.68;100.00
10940;BME280;5522;42.696;23.494;2023-01-31T03:33:42;53871.91;;;-139.68;100.00
10940;BME280;5522;42.696;23.494;2023-01-31T03:36:16;53831.69;;;-139.68;100.00
10940;BME280;5522;42.696;23.494;2023-01-31T03:38:51;53841.75;;;-139.68;100.00
10940;BME280;5522;42.696;23.494;2023-01-31T03:41:24;53849.78;;;-139.68;100.00
10940;BME280;5522;42.696;23.494;2023-01-31T03:43:58;53867.88;;;-139.68;100.00
10940;BME280;5522;42.696;23.494;2023-01-31T03:46:30;53871.91;;;-139.68;100.00
10940;BME280;5522;42.696;23.494;2023-01-31T03:49:01;53843.75;;;-139.68;100.00
10940;BME280;5522;42.696;23.494;2023-01-31T03:51:37;53821.66;;;-139.68;100.00
10940;BME280;5522;42.696;23.494;2023-01-31T03:54:08;53861.84;;;-139.68;100.00
10940;BME280;5522;42.696;23.494;2023-01-31T03:56:42;53851.81;;;-139.68;100.00
10940;BME280;5522;42.696;23.494;2023-01-31T03:59:12;53849.78;;;-139.68;100.00
10940;BME280;5522;42.696;23.494;2023-01-31T04:01:43;53859.84;;;-139.68;100.00
10940;BME280;5522;42.696;23.494;2023-01-31T04:04:15;53902.06;;;-139.68;100.00
10940;BME280;5522;42.696;23.494;2023-01-31T04:06:45;53823.66;;;-139.68;100.00
10940;BME280;5522;42.696;23.494;2023-01-31T04:09:12;53831.69;;;-139.68;100.00
10940;BME280;5522;42.696;23.494;2023-01-31T04:11:40;53839.75;;;-139.68;100.00
10940;BME280;5522;42.696;23.494;2023-01-31T04:14:08;53835.72;;;-139.68;100.00
10940;BME280;5522;42.696;23.494;2023-01-31T04:16:35;53859.84;;;-139.68;100.00
10940;BME280;5522;42.696;23.494;2023-01-31T04:19:02;53881.97;;;-139.68;100.00
10940;BME280;5522;42.696;23.494;2023-01-31T04:21:30;53815.63;;;-139.68;100.00
10940;BME280;5522;42.696;23.494;2023-01-31T04:23:58;53871.91;;;-139.68;100.00
10940;BME280;5522;42.696;23.494;2023-01-31T04:26:25;53831.69;;;-139.68;100.00
10940;BME280;5522;42.696;23.494;2023-01-31T04:28:52;53845.78;;;-139.68;100.00
10940;BME280;5522;42.696;23.494;2023-01-31T04:31:19;53849.78;;;-139.68;100.00
10940;BME280;5522;42.696;23.494;2023-01-31T04:33:46;53875.94;;;-139.68;100.00
10940;BME280;5522;42.696;23.494;2023-01-31T04:36:13;53855.81;;;-139.68;100.00
10940;BME280;5522;42.696;23.494;2023-01-31T04:38:39;53855.81;;;-139.68;100.00
10940;BME280;5522;42.696;23.494;2023-01-31T04:41:08;53839.75;;;-139.68;100.00
10940;BME280;5522;42.696;23.494;2023-01-31T04:43:35;53817.63;;;-139.68;100.00
10940;BME280;5522;42.696;23.494;2023-01-31T04:46:01;53839.75;;;-139.68;100.00
10940;BME280;5522;42.696;23.494;2023-01-31T04:48:28;53867.88;;;-139.68;100.00
10940;BME280;5522;42.696;23.494;2023-01-31T04:50:55;53859.84;;;-139.68;100.00
10940;BME280;5522;42.696;23.494;2023-01-31T04:53:22;53845.78;;;-139.68;100.00
10940;BME280;5522;42.696;23.494;2023-01-31T04:55:52;53843.75;;;-139.68;100.00
10940;BME280;5522;42.696;23.494;2023-01-31T04:58:21;53843.75;;;-139.68;100.00
10940;BME280;5522;42.696;23.494;2023-01-31T05:00:48;53855.81;;;-139.68;100.00
10940;BME280;5522;42.696;23.494;2023-01-31T05:03:15;53869.91;;;-139.68;100.00
10940;BME280;5522;42.696;23.494;2023-01-31T05:05:42;53849.78;;;-139.68;100.00
10940;BME280;5522;42.696;23.494;2023-01-31T05:08:09;53877.94;;;-139.68;100.00
10940;BME280;5522;42.696;23.494;2023-01-31T05:10:35;53845.78;;;-139.68;100.00
10940;BME280;5522;42.696;23.494;2023-01-31T05:13:02;53819.63;;;-139.68;100.00
10940;BME280;5522;42.696;23.494;2023-01-31T05:15:31;53805.56;;;-139.68;100.00
10940;BME280;5522;42.696;23.494;2023-01-31T05:17:58;53827.69;;;-139.68;100.00
10940;BME280;5522;42.696;23.494;2023-01-31T05:20:29;53863.88;;;-139.68;100.00
10940;BME280;5522;42.696;23.494;2023-01-31T05:22:56;53851.81;;;-139.68;100.00
10940;BME280;5522;42.696;23.494;2023-01-31T05:25:26;53853.81;;;-139.68;100.00
10940;BME280;5522;42.696;23.494;2023-01-31T05:27:55;53879.94;;;-139.68;100.00
10940;BME280;5522;42.696;23.494;2023-01-31T05:30:22;53845.78;;;-139.68;100.00
10940;BME280;5522;42.696;23.494;2023-01-31T05:32:51;53821.66;;;-139.68;100.00
10940;BME280;5522;42.696;23.494;2023-01-31T05:35:17;53843.75;;;-139.68;100.00
10940;BME280;5522;42.696;23.494;2023-01-31T05:37:44;53835.72;;;-139.68;100.00
10940;BME280;5522;42.696;23.494;2023-01-31T05:40:13;53851.81;;;-139.68;100.00
10940;BME280;5522;42.696;23.494;2023-01-31T05:42:41;53849.78;;;-139.68;100.00
10940;BME280;5522;42.696;23.494;2023-01-31T05:45:09;53861.84;;;-139.68;100.00
10940;BME280;5522;42.696;23.494;2023-01-31T05:47:37;53861.84;;;-139.68;100.00
10940;BME280;5522;42.696;23.494;2023-01-31T05:50:06;53865.88;;;-139.68;100.00
10940;BME280;5522;42.696;23.494;2023-01-31T05:52:33;53839.75;;;-139.68;100.00
10940;BME280;5522;42.696;23.494;2023-01-31T05:54:59;53849.78;;;-139.68;100.00
10940;BME280;5522;42.696;23.494;2023-01-31T05:57:26;53835.72;;;-139.68;100.00
10940;BME280;5522;42.696;23.494;2023-01-31T05:59:53;53851.81;;;-139.68;100.00
10940;BME280;5522;42.696;23.494;2023-01-31T06:02:20;53837.72;;;-139.68;100.00
10940;BME280;5522;42.696;23.494;2023-01-31T06:04:48;53835.72;;;-139.68;100.00
10940;BME280;5522;42.696;23.494;2023-01-31T06:07:16;53845.78;;;-139.68;100.00
10940;BME280;5522;42.696;23.494;2023-01-31T06:09:43;53863.88;;;-139.68;100.00
10940;BME280;5522;42.696;23.494;2023-01-31T06:12:12;53851.81;;;-139.68;100.00
10940;BME280;5522;42.696;23.494;2023-01-31T06:14:39;53871.91;;;-139.68;100.00
10940;BME280;5522;42.696;23.494;2023-01-31T06:17:06;53885.97;;;-139.68;100.00
10940;BME280;5522;42.696;23.494;2023-01-31T06:19:34;53845.78;;;-139.68;100.00
10940;BME280;5522;42.696;23.494;2023-01-31T06:22:00;53890.00;;;-139.68;100.00
10940;BME280;5522;42.696;23.494;2023-01-31T06:24:29;53857.84;;;-139.68;100.00
10940;BME280;5522;42.696;23.494;2023-01-31T06:26:56;53849.78;;;-139.68;100.00
10940;BME280;5522;42.696;23.494;2023-01-31T06:29:23;53859.84;;;-139.68;100.00
10940;BME280;5522;42.696;23.494;2023-01-31T06:31:49;53873.91;;;-139.68;100.00
10940;BME280;5522;42.696;23.494;2023-01-31T06:34:18;53839.75;;;-139.68;100.00
10940;BME280;5522;42.696;23.494;2023-01-31T06:36:45;53839.75;;;-139.68;100.00
10940;BME280;5522;42.696;23.494;2023-01-31T06:39:12;53839.75;;;-139.68;100.00
10940;BME280;5522;42.696;23.494;2023-01-31T06:41:40;53849.78;;;-139.68;100.00
10940;BME280;5522;42.696;23.494;2023-01-31T06:44:07;53873.91;;;-139.68;100.00
10940;BME280;5522;42.696;23.494;2023-01-31T06:46:34;53843.75;;;-139.68;100.00
10940;BME280;5522;42.696;23.494;2023-01-31T06:49:01;53875.94;;;-139.68;100.00
10940;BME280;5522;42.696;23.494;2023-01-31T06:51:28;53851.81;;;-139.68;100.00
10940;BME280;5522;42.696;23.494;2023-01-31T06:53:55;53851.81;;;-139.68;100.00
10940;BME280;5522;42.696;23.494;2023-01-31T06:56:22;53865.88;;;-139.68;100.00
10940;BME280;5522;42.696;23.494;2023-01-31T06:58:50;53851.81;;;-139.68;100.00
10940;BME280;5522;42.696;23.494;2023-01-31T07:01:17;53865.88;;;-139.68;100.00
10940;BME280;5522;42.696;23.494;2023-01-31T07:03:46;53845.78;;;-139.68;100.00
10940;BME280;5522;42.696;23.494;2023-01-31T07:06:13;53841.75;;;-139.68;100.00
10940;BME280;5522;42.696;23.494;2023-01-31T07:08:42;53890.00;;;-139.68;100.00
10940;BME280;5522;42.696;23.494;2023-01-31T07:11:09;53855.81;;;-139.68;100.00
10940;BME280;5522;42.696;23.494;2023-01-31T07:13:36;53885.97;;;-139.68;100.00
10940;BME280;5522;42.696;23.494;2023-01-31T07:16:05;53865.88;;;-139.68;100.00
10940;BME280;5522;42.696;23.494;2023-01-31T07:18:32;53845.78;;;-139.68;100.00
10940;BME280;5522;42.696;23.494;2023-01-31T07:20:58;53851.81;;;-139.68;100.00
10940;BME280;5522;42.696;23.494;2023-01-31T07:23:25;53871.91;;;-139.68;100.00
10940;BME280;5522;42.696;23.494;2023-01-31T07:25:52;53859.84;;;-139.68;100.00
10940;BME280;5522;42.696;23.494;2023-01-31T07:28:19;53847.78;;;-139.68;100.00
10940;BME280;5522;42.696;23.494;2023-01-31T07:30:46;53869.91;;;-139.68;100.00
10940;BME280;5522;42.696;23.494;2023-01-31T07:33:14;53871.91;;;-139.68;100.00
10940;BME280;5522;42.696;23.494;2023-01-31T07:35:41;53873.91;;;-139.68;100.00
10940;BME280;5522;42.696;23.494;2023-01-31T07:38:08;53859.84;;;-139.68;100.00
10940;BME280;5522;42.696;23.494;2023-01-31T07:40:35;53873.91;;;-139.68;100.00
10940;BME280;5522;42.696;23.494;2023-01-31T07:43:04;53892.00;;;-139.68;100.00
10940;BME280;5522;42.696;23.494;2023-01-31T07:45:31;53839.75;;;-139.68;100.00
10940;BME280;5522;42.696;23.494;2023-01-31T07:47:58;53855.81;;;-139.68;100.00
10940;BME280;5522;42.696;23.494;2023-01-31T07:50:26;53900.06;;;-139.68;100.00
10940;BME280;5522;42.696;23.494;2023-01-31T07:52:53;53877.94;;;-139.68;100.00
10940;BME280;5522;42.696;23.494;2023-01-31T07:55:20;53883.97;;;-139.68;100.00
10940;BME280;5522;42.696;23.494;2023-01-31T07:57:47;53855.81;;;-139.68;100.00
10940;BME280;5522;42.696;23.494;2023-01-31T08:00:14;53827.69;;;-139.68;100.00
10940;BME280;5522;42.696;23.494;2023-01-31T08:02:55;53859.84;;;-139.68;100.00
10940;BME280;5522;42.696;23.494;2023-01-31T08:05:40;53861.84;;;-139.68;100.00
10940;BME280;5522;42.696;23.494;2023-01-31T08:08:07;53815.63;;;-139.68;100.00
10940;BME280;5522;42.696;23.494;2023-01-31T08:10:37;53881.97;;;-139.68;100.00
10940;BME280;5522;42.696;23.494;2023-01-31T08:13:04;53900.06;;;-139.68;100.00
10940;BME280;5522;42.696;23.494;2023-01-31T08:15:31;53859.84;;;-139.68;100.00
10940;BME280;5522;42.696;23.494;2023-01-31T08:17:58;53885.97;;;-139.68;100.00
10940;BME280;5522;42.696;23.494;2023-01-31T08:20:25;53865.88;;;-139.68;100.00
10940;BME280;5522;42.696;23.494;2023-01-31T08:22:55;53851.81;;;-139.68;100.00
10940;BME280;5522;42.696;23.494;2023-01-31T08:25:22;53831.69;;;-139.68;100.00
10940;BME280;5522;42.696;23.494;2023-01-31T08:27:51;53908.09;;;-139.68;100.00
10940;BME280;5522;42.696;23.494;2023-01-31T08:30:18;53849.78;;;-139.68;100.00
10940;BME280;5522;42.696;23.494;2023-01-31T08:32:44;53896.03;;;-139.68;100.00
10940;BME280;5522;42.696;23.494;2023-01-31T08:35:11;53881.97;;;-139.68;100.00
10940;BME280;5522;42.696;23.494;2023-01-31T08:37:38;53853.81;;;-139.68;100.00
10940;BME280;5522;42.696;23.494;2023-01-31T08:40:08;53924.16;;;-139.68;100.00
10940;BME280;5522;42.696;23.494;2023-01-31T08:42:35;53896.03;;;-139.68;100.00
10940;BME280;5522;42.696;23.494;2023-01-31T08:45:03;53875.94;;;-139.68;100.00
10940;BME280;5522;42.696;23.494;2023-01-31T08:47:31;53883.97;;;-139.68;100.00
10940;BME280;5522;42.696;23.494;2023-01-31T08:50:03;53875.94;;;-139.68;100.00
10940;BME280;5522;42.696;23.494;2023-01-31T08:52:32;53823.66;;;-139.68;100.00
10940;BME280;5522;42.696;23.494;2023-01-31T08:55:00;53904.06;;;-139.68;100.00
10940;BME280;5522;42.696;23.494;2023-01-31T08:57:28;53883.97;;;-139.68;100.00
10940;BME280;5522;42.696;23.494;2023-01-31T08:59:55;53873.91;;;-139.68;100.00
10940;BME280;5522;42.696;23.494;2023-01-31T09:02:22;53904.06;;;-139.68;100.00
10940;BME280;5522;42.696;23.494;2023-01-31T09:04:49;53851.81;;;-139.68;100.00
10940;BME280;5522;42.696;23.494;2023-01-31T09:07:15;53851.81;;;-139.68;100.00
10940;BME280;5522;42.696;23.494;2023-01-31T09:09:46;53869.91;;;-139.68;100.00
10940;BME280;5522;42.696;23.494;2023-01-31T09:12:13;53859.84;;;-139.68;100.00
10940;BME280;5522;42.696;23.494;2023-01-31T09:14:41;53875.94;;;-139.68;100.00
10940;BME280;5522;42.696;23.494;2023-01-31T09:17:08;53892.00;;;-139.68;100.00
10940;BME280;5522;42.696;23.494;2023-01-31T09:19:35;53869.91;;;-139.68;100.00
10940;BME280;5522;42.696;23.494;2023-01-31T09:22:02;53879.94;;;-139.68;100.00
10940;BME280;5522;42.696;23.494;2023-01-31T09:24:29;53875.94;;;-139.68;100.00
10940;BME280;5522;42.696;23.494;2023-01-31T09:26:56;53835.72;;;-139.68;100.00
10940;BME280;5522;42.696;23.494;2023-01-31T09:29:23;53914.13;;;-139.68;100.00
10940;BME280;5522;42.696;23.494;2023-01-31T09:31:51;53910.09;;;-139.68;100.00
10940;BME280;5522;42.696;23.494;2023-01-31T09:34:18;53898.03;;;-139.68;100.00
10940;BME280;5522;42.696;23.494;2023-01-31T09:36:46;53908.09;;;-139.68;100.00
10940;BME280;5522;42.696;23.494;2023-01-31T09:39:14;53857.84;;;-139.68;100.00
10940;BME280;5522;42.696;23.494;2023-01-31T09:41:42;53865.88;;;-139.68;100.00
10940;BME280;5522;42.696;23.494;2023-01-31T09:44:14;53867.88;;;-139.68;100.00
10940;BME280;5522;42.696;23.494;2023-01-31T09:46:47;53841.75;;;-139.68;100.00
10940;BME280;5522;42.696;23.494;2023-01-31T09:49:21;53875.94;;;-139.68;100.00
10940;BME280;5522;42.696;23.494;2023-01-31T09:51:51;53855.81;;;-139.68;100.00
10940;BME280;5522;42.696;23.494;2023-01-31T09:54:24;53847.78;;;-139.68;100.00
10940;BME280;5522;42.696;23.494;2023-01-31T09:56:59;53879.94;;;-139.68;100.00
10940;BME280;5522;42.696;23.494;2023-01-31T09:59:35;53896.03;;;-139.68;100.00
10940;BME280;5522;42.696;23.494;2023-01-31T10:02:14;53875.94;;;-139.68;100.00
10940;BME280;5522;42.696;23.494;2023-01-31T10:04:55;53896.03;;;-139.68;100.00
10940;BME280;5522;42.696;23.494;2023-01-31T10:07:27;53892.00;;;-139.68;100.00
10940;BME280;5522;42.696;23.494;2023-01-31T10:10:01;53865.88;;;-139.68;99.68
10940;BME280;5522;42.696;23.494;2023-01-31T10:12:32;53926.19;;;-139.68;98.80
10940;BME280;5522;42.696;23.494;2023-01-31T10:15:05;53853.81;;;-139.68;97.49
10940;BME280;5522;42.696;23.494;2023-01-31T10:17:41;53849.78;;;-139.68;98.51
10940;BME280;5522;42.696;23.494;2023-01-31T10:20:18;53859.84;;;-139.68;100.00
10940;BME280;5522;42.696;23.494;2023-01-31T10:22:49;53867.88;;;-139.68;100.00
10940;BME280;5522;42.696;23.494;2023-01-31T10:25:24;53871.91;;;-139.68;100.00
10940;BME280;5522;42.696;23.494;2023-01-31T10:27:55;53898.03;;;-139.68;100.00
10940;BME280;5522;42.696;23.494;2023-01-31T10:30:27;53863.88;;;-139.68;95.83
10940;BME280;5522;42.696;23.494;2023-01-31T10:33:01;53871.91;;;-139.68;94.88
10940;BME280;5522;42.696;23.494;2023-01-31T10:35:34;53867.88;;;-139.68;94.70
10940;BME280;5522;42.696;23.494;2023-01-31T10:38:11;53883.97;;;-139.68;94.14
10940;BME280;5522;42.696;23.494;2023-01-31T10:40:43;53888.00;;;-139.68;94.79
10940;BME280;5522;42.696;23.494;2023-01-31T10:43:17;53892.00;;;-139.68;95.75
10940;BME280;5522;42.696;23.494;2023-01-31T10:45:46;53869.91;;;-139.68;96.47
10940;BME280;5522;42.696;23.494;2023-01-31T10:48:14;53865.88;;;-139.68;96.34
10940;BME280;5522;42.696;23.494;2023-01-31T10:50:53;53867.88;;;-139.68;97.97
10940;BME280;5522;42.696;23.494;2023-01-31T10:53:42;53879.94;;;-139.68;100.00
10940;BME280;5522;42.696;23.494;2023-01-31T10:56:17;53873.91;;;-139.68;100.00
10940;BME280;5522;42.696;23.494;2023-01-31T10:58:48;53904.06;;;-139.68;100.00
10940;BME280;5522;42.696;23.494;2023-01-31T11:01:16;53875.94;;;-139.68;100.00
10940;BME280;5522;42.696;23.494;2023-01-31T11:03:47;53851.81;;;-139.68;100.00
10940;BME280;5522;42.696;23.494;2023-01-31T11:06:16;53871.91;;;-139.68;100.00
10940;BME280;5522;42.696;23.494;2023-01-31T11:08:46;53892.00;;;-139.68;100.00
10940;BME280;5522;42.696;23.494;2023-01-31T11:11:15;53847.78;;;-139.68;100.00
10940;BME280;5522;42.696;23.494;2023-01-31T11:13:56;53902.06;;;-139.68;100.00
10940;BME280;5522;42.696;23.494;2023-01-31T11:16:24;53875.94;;;-139.68;100.00
10940;BME280;5522;42.696;23.494;2023-01-31T11:18:56;53873.91;;;-139.68;100.00
10940;BME280;5522;42.696;23.494;2023-01-31T11:21:28;53890.00;;;-139.68;100.00
10940;BME280;5522;42.696;23.494;2023-01-31T11:24:00;53883.97;;;-139.68;100.00
10940;BME280;5522;42.696;23.494;2023-01-31T11:26:30;53859.84;;;-139.68;100.00
10940;BME280;5522;42.696;23.494;2023-01-31T11:28:57;53831.69;;;-139.68;100.00
10940;BME280;5522;42.696;23.494;2023-01-31T11:31:28;53879.94;;;-139.68;100.00
10940;BME280;5522;42.696;23.494;2023-01-31T11:33:57;53902.06;;;-139.68;100.00
10940;BME280;5522;42.696;23.494;2023-01-31T11:36:30;53918.16;;;-139.68;100.00
10940;BME280;5522;42.696;23.494;2023-01-31T11:38:58;53936.22;;;-139.68;100.00
10940;BME280;5522;42.696;23.494;2023-01-31T11:41:28;53920.16;;;-139.68;100.00
10940;BME280;5522;42.696;23.494;2023-01-31T11:44:13;53892.00;;;-139.68;100.00
10940;BME280;5522;42.696;23.494;2023-01-31T11:46:45;53869.91;;;-139.68;100.00
10940;BME280;5522;42.696;23.494;2023-01-31T11:49:15;53873.91;;;-139.68;100.00
10940;BME280;5522;42.696;23.494;2023-01-31T11:51:47;53904.06;;;-139.68;100.00
10940;BME280;5522;42.696;23.494;2023-01-31T11:54:18;53873.91;;;-139.68;100.00
10940;BME280;5522;42.696;23.494;2023-01-31T11:56:47;53881.97;;;-139.68;100.00
10940;BME280;5522;42.696;23.494;2023-01-31T11:59:17;53859.84;;;-139.68;100.00
10940;BME280;5522;42.696;23.494;2023-01-31T12:01:48;53904.06;;;-139.68;100.00
10940;BME280;5522;42.696;23.494;2023-01-31T12:04:17;53888.00;;;-139.68;100.00
10940;BME280;5522;42.696;23.494;2023-01-31T12:06:59;53879.94;;;-139.68;100.00
10940;BME280;5522;42.696;23.494;2023-01-31T12:09:30;53843.75;;;-139.68;100.00
10940;BME280;5522;42.696;23.494;2023-01-31T12:12:23;53859.84;;;-139.68;100.00
10940;BME280;5522;42.696;23.494;2023-01-31T12:14:50;53855.81;;;-139.68;100.00
10940;BME280;5522;42.696;23.494;2023-01-31T12:17:20;53883.97;;;-139.68;100.00
10940;BME280;5522;42.696;23.494;2023-01-31T12:19:57;53896.03;;;-139.68;100.00
10940;BME280;5522;42.696;23.494;2023-01-31T12:22:35;53883.97;;;-139.68;100.00
10940;BME280;5522;42.696;23.494;2023-01-31T12:25:11;53902.06;;;-139.68;100.00
10940;BME280;5522;42.696;23.494;2023-01-31T12:27:53;53881.97;;;-139.68;100.00
10940;BME280;5522;42.696;23.494;2023-01-31T12:30:50;53888.00;;;-139.68;100.00
10940;BME280;5522;42.696;23.494;2023-01-31T12:33:33;53883.97;;;-139.68;100.00
10940;BME280;5522;42.696;23.494;2023-01-31T12:36:13;53906.06;;;-139.68;100.00
10940;BME280;5522;42.696;23.494;2023-01-31T12:38:55;53863.88;;;-139.68;100.00
10940;BME280;5522;42.696;23.494;2023-01-31T12:41:31;53888.00;;;-139.68;100.00
10940;BME280;5522;42.696;23.494;2023-01-31T12:44:11;53867.88;;;-139.68;100.00
10940;BME280;5522;42.696;23.494;2023-01-31T12:47:02;53883.97;;;-139.68;100.00
10940;BME280;5522;42.696;23.494;2023-01-31T12:49:55;53863.88;;;-139.68;100.00
10940;BME280;5522;42.696;23.494;2023-01-31T12:52:30;53863.88;;;-139.68;100.00